createdAt,value
2019-04-03T00:01:26.796Z,70.50
2019-04-03T00:06:30.395Z,73.00
2019-04-03T00:11:34.568Z,74.90
2019-04-03T00:16:38.200Z,76.80
2019-04-03T00:21:41.786Z,80.40
2019-04-03T00:26:45.803Z,81.30
2019-04-03T00:31:49.390Z,83.60
2019-04-03T00:36:53.717Z,81.30
2019-04-03T00:41:57.561Z,84.20
2019-04-03T00:47:01.255Z,86.30
2019-04-03T00:52:04.939Z,85.30
2019-04-03T00:57:08.548Z,83.80
2019-04-03T01:02:12.195Z,85.20
2019-04-03T01:07:15.949Z,85.30
2019-04-03T01:12:19.809Z,84.30
2019-04-03T01:17:23.406Z,84.90
2019-04-03T01:22:27.180Z,83.40
2019-04-03T01:27:31.217Z,85.00
2019-04-03T01:32:34.882Z,84.40
2019-04-03T01:37:38.469Z,84.20
2019-04-03T01:42:42.400Z,83.90
2019-04-03T01:47:45.992Z,83.00
2019-04-03T01:52:49.580Z,82.90
2019-04-03T01:57:53.170Z,83.80
2019-04-03T02:02:56.860Z,83.40
2019-04-03T02:08:00.609Z,88.90
2019-04-03T02:13:04.437Z,89.10
2019-04-03T02:18:08.041Z,89.00
2019-04-03T02:23:11.781Z,87.60
2019-04-03T02:28:15.507Z,88.40
2019-04-03T02:33:19.179Z,88.50
2019-04-03T02:38:23.425Z,87.70
2019-04-03T02:43:27.569Z,90.10
2019-04-03T02:48:31.624Z,90.70
2019-04-03T02:53:35.969Z,90.00
2019-04-03T02:58:40.214Z,91.20
2019-04-03T03:27:47.724Z,91.40
2019-04-03T03:32:52.161Z,91.60
2019-04-03T03:37:56.844Z,92.00
2019-04-03T03:43:05.038Z,91.60
2019-04-03T03:48:09.141Z,91.70
2019-04-03T03:53:13.593Z,91.20
2019-04-03T03:58:19.118Z,91.00
2019-04-03T04:03:23.587Z,91.00
2019-04-03T04:08:28.598Z,91.50
2019-04-03T04:13:32.533Z,91.40
2019-04-03T04:18:36.404Z,91.50
2019-04-03T04:23:41.245Z,91.20
2019-04-03T04:28:45.174Z,91.20
2019-04-03T04:33:48.929Z,91.70
2019-04-03T04:38:52.520Z,91.30
2019-04-03T04:43:56.180Z,91.30
2019-04-03T04:48:59.769Z,91.70
2019-04-03T04:54:03.757Z,91.60
2019-04-03T04:59:07.426Z,92.10
2019-04-03T05:04:11.417Z,91.70
2019-04-03T05:09:14.997Z,91.70
2019-04-03T05:14:18.756Z,91.80
2019-04-03T05:19:22.615Z,91.30
2019-04-03T05:24:26.928Z,91.50
2019-04-03T05:29:34.199Z,91.80
2019-04-03T05:34:36.938Z,91.70
2019-04-03T05:39:40.644Z,91.60
2019-04-03T05:44:44.245Z,92.00
2019-04-03T05:49:50.687Z,91.60
2019-04-03T05:54:53.588Z,91.30
2019-04-03T06:00:00.690Z,90.30
2019-04-03T06:05:06.053Z,90.10
2019-04-03T06:10:08.641Z,90.00
2019-04-03T06:15:12.660Z,90.20
2019-04-03T06:20:16.397Z,90.00
2019-04-03T06:25:20.152Z,90.10
2019-04-03T06:30:25.008Z,90.00
2019-04-03T06:35:29.813Z,90.20
2019-04-03T06:40:35.933Z,90.60
2019-04-03T06:45:39.581Z,89.30
2019-04-03T06:50:43.361Z,87.30
2019-04-03T06:55:46.956Z,87.40
2019-04-03T07:00:50.628Z,87.00
2019-04-03T07:05:54.335Z,84.90
2019-04-03T07:10:58.244Z,86.30
2019-04-03T07:16:01.838Z,87.60
2019-04-03T07:21:05.628Z,89.80
2019-04-03T07:26:09.620Z,85.40
2019-04-03T07:31:13.271Z,85.30
2019-04-03T07:36:17.179Z,80.70
2019-04-03T07:41:23.378Z,80.80
2019-04-03T07:46:26.433Z,82.00
2019-04-03T07:51:30.387Z,80.90
2019-04-03T07:56:34.052Z,81.40
2019-04-03T08:01:38.793Z,80.40
2019-04-03T08:06:43.667Z,80.70
2019-04-03T08:11:47.320Z,81.20
2019-04-03T08:16:50.988Z,81.30
2019-04-03T08:21:54.708Z,78.10
2019-04-03T08:26:58.262Z,79.20
2019-04-03T08:32:01.926Z,84.40
2019-04-03T08:37:05.843Z,80.40
2019-04-03T08:42:09.508Z,84.80
2019-04-03T08:47:14.244Z,87.20
2019-04-03T08:52:18.303Z,83.80
2019-04-03T08:57:21.887Z,84.10
2019-04-03T09:02:25.797Z,84.70
2019-04-03T09:07:29.695Z,82.70
2019-04-03T09:12:33.307Z,83.60
2019-04-03T09:17:36.953Z,86.60
2019-04-03T09:22:40.930Z,84.70
2019-04-03T09:27:44.941Z,83.60
2019-04-03T09:32:48.625Z,83.50
2019-04-03T09:37:52.271Z,81.40
2019-04-03T09:42:55.946Z,81.00
2019-04-03T09:47:59.631Z,82.80
2019-04-03T09:53:03.508Z,83.10
2019-04-03T09:58:07.145Z,81.90
2019-04-03T10:03:11.716Z,80.30
2019-04-03T10:08:15.317Z,78.40
2019-04-03T10:13:19.366Z,78.10
2019-04-03T10:18:22.953Z,77.50
2019-04-03T10:23:28.765Z,77.30
2019-04-03T10:28:32.002Z,77.90
2019-04-03T10:33:35.981Z,76.80
2019-04-03T10:38:41.878Z,77.20
2019-04-03T10:43:45.394Z,77.30
2019-04-03T10:48:49.451Z,77.70
2019-04-03T10:53:53.121Z,76.60
2019-04-03T10:59:08.886Z,75.40
2019-04-03T11:04:02.101Z,75.80
2019-04-03T11:09:07.861Z,77.50
2019-04-03T11:14:11.450Z,78.30
2019-04-03T11:19:15.337Z,80.30
2019-04-03T11:24:19.088Z,81.80
2019-04-03T11:29:23.219Z,82.80
2019-04-03T11:34:26.852Z,83.50
2019-04-03T11:39:30.381Z,85.00
2019-04-03T11:44:33.970Z,85.60
2019-04-03T11:49:37.952Z,85.30
2019-04-03T11:54:41.668Z,88.60
2019-04-03T11:59:46.981Z,86.00
2019-04-03T12:04:50.567Z,85.40
2019-04-03T12:09:54.432Z,84.20
2019-04-03T12:14:58.014Z,84.50
2019-04-03T12:20:01.588Z,82.50
2019-04-03T12:25:06.381Z,81.00
2019-04-03T12:30:10.500Z,85.00
2019-04-03T12:35:14.421Z,82.80
2019-04-03T12:40:18.246Z,81.20
2019-04-03T12:45:21.956Z,82.80
2019-04-03T12:50:27.609Z,84.80
2019-04-03T12:55:31.563Z,84.50
2019-04-03T13:00:35.944Z,84.70
2019-04-03T13:05:39.591Z,84.80
2019-04-03T13:10:47.554Z,83.80
2019-04-03T13:15:48.473Z,85.30
2019-04-03T13:20:52.424Z,83.60
2019-04-03T13:25:56.283Z,84.80
2019-04-03T13:31:00.604Z,84.80
2019-04-03T13:36:05.250Z,85.00
2019-04-03T13:41:10.648Z,84.10
2019-04-03T13:46:14.429Z,84.80
2019-04-03T13:51:18.020Z,82.90
2019-04-03T13:56:24.148Z,85.80
2019-04-03T14:01:27.897Z,87.30
2019-04-03T14:06:32.061Z,88.00
2019-04-03T14:11:35.714Z,89.60
2019-04-03T14:16:39.409Z,90.30
2019-04-03T14:21:43.270Z,90.30
2019-04-03T14:26:46.929Z,90.40
2019-04-03T14:31:50.844Z,90.20
2019-04-03T14:36:54.916Z,90.20
2019-04-03T14:41:58.732Z,88.60
2019-04-03T14:47:02.349Z,88.70
2019-04-03T14:52:06.320Z,88.90
2019-04-03T14:57:20.213Z,89.00
2019-04-03T15:02:15.943Z,90.20
2019-04-03T15:07:19.827Z,88.70
2019-04-03T15:12:23.454Z,90.00
2019-04-03T15:17:27.050Z,90.10
2019-04-03T15:22:32.382Z,88.00
2019-04-03T15:27:36.458Z,90.30
2019-04-03T15:32:40.173Z,91.20
2019-04-03T15:37:44.375Z,91.10
2019-04-03T15:42:48.087Z,90.30
2019-04-03T15:47:54.092Z,90.60
2019-04-03T15:52:57.033Z,90.50
2019-04-03T15:58:00.610Z,91.00
2019-04-03T16:03:04.916Z,91.50
2019-04-03T16:08:10.012Z,91.30
2019-04-03T16:13:15.809Z,91.40
2019-04-03T16:18:20.650Z,91.70
2019-04-03T16:23:25.104Z,91.70
2019-04-03T16:28:28.781Z,90.50
2019-04-03T16:33:35.088Z,90.80
2019-04-03T16:38:37.579Z,90.20
2019-04-03T16:43:41.252Z,90.90
2019-04-03T16:48:44.849Z,91.30
2019-04-03T16:53:48.440Z,91.30
2019-04-03T16:58:52.396Z,91.10
2019-04-03T17:03:56.445Z,90.20
2019-04-03T17:09:00.072Z,89.90
2019-04-03T17:14:04.786Z,89.50
2019-04-03T17:19:08.750Z,91.40
2019-04-03T17:24:12.464Z,90.70
2019-04-03T17:29:16.060Z,90.80
2019-04-03T17:34:19.705Z,90.70
2019-04-03T17:39:23.306Z,89.60
2019-04-03T17:44:26.889Z,89.70
2019-04-03T17:49:30.477Z,91.00
2019-04-03T17:54:34.414Z,90.00
2019-04-03T17:59:38.337Z,89.20
2019-04-03T18:04:41.926Z,87.80
2019-04-03T18:09:45.521Z,89.50
2019-04-03T18:14:49.423Z,89.80
2019-04-03T18:19:53.111Z,88.50
2019-04-03T18:24:57.449Z,90.10
2019-04-03T18:30:01.044Z,90.30
2019-04-03T18:35:07.211Z,90.40
2019-04-03T18:40:14.267Z,89.10
2019-04-03T18:45:25.149Z,89.10
2019-04-03T18:50:22.947Z,90.70
2019-04-03T18:55:26.806Z,89.50
2019-04-03T19:00:31.233Z,91.00
2019-04-03T19:05:34.969Z,90.50
2019-04-03T19:10:38.563Z,89.40
2019-04-03T19:15:42.137Z,90.50
2019-04-03T19:20:45.728Z,90.60
2019-04-03T19:25:49.674Z,90.60
2019-04-03T19:30:53.725Z,90.70
2019-04-03T19:35:58.662Z,89.00
2019-04-03T19:41:02.841Z,90.10
2019-04-03T19:46:06.488Z,91.00
2019-04-03T19:51:10.157Z,90.10
2019-04-03T19:56:14.092Z,90.20
2019-04-03T20:01:17.688Z,91.00
2019-04-03T20:06:22.862Z,90.40
2019-04-03T20:11:27.006Z,90.40
2019-04-03T20:16:30.597Z,90.20
2019-04-03T20:21:35.973Z,90.20
2019-04-03T20:26:39.473Z,90.80
2019-04-03T20:31:43.336Z,90.90
2019-04-03T20:36:46.934Z,90.90
2019-04-03T20:41:50.989Z,90.10
2019-04-03T20:46:55.941Z,90.00
2019-04-03T20:51:59.864Z,90.80
2019-04-03T20:57:03.592Z,91.10
2019-04-03T21:02:08.273Z,91.20
2019-04-03T21:07:12.992Z,91.40
2019-04-03T21:12:16.895Z,91.50
2019-04-03T21:17:23.829Z,91.00
2019-04-03T21:22:29.573Z,91.70
2019-04-03T21:27:31.744Z,90.80
2019-04-03T21:32:35.342Z,90.60
2019-04-03T21:37:40.534Z,91.10
2019-04-03T21:42:44.389Z,90.70
2019-04-03T21:47:48.464Z,90.80
2019-04-03T21:52:53.765Z,91.10
2019-04-03T21:57:57.372Z,91.20
2019-04-03T22:03:01.025Z,90.80
2019-04-03T22:08:04.777Z,90.30
2019-04-03T22:13:08.402Z,91.70
2019-04-03T22:18:12.038Z,90.80
2019-04-03T22:23:15.630Z,91.00
2019-04-03T22:28:19.285Z,90.50
2019-04-03T22:33:23.269Z,90.90
2019-04-03T22:38:26.956Z,90.60
2019-04-03T22:43:30.541Z,91.00
2019-04-03T22:48:34.202Z,91.20
2019-04-03T22:53:37.800Z,90.90
2019-04-03T22:58:41.797Z,91.10
2019-04-03T23:03:45.389Z,91.50
2019-04-03T23:08:48.976Z,91.60
2019-04-03T23:13:52.671Z,91.80
2019-04-03T23:18:56.249Z,91.70
2019-04-03T23:23:59.821Z,91.60
2019-04-03T23:29:05.203Z,91.50
2019-04-03T23:34:08.835Z,91.10
2019-04-03T23:39:12.412Z,91.30
2019-04-03T23:44:16.060Z,90.90
2019-04-03T23:49:20.185Z,90.70
2019-04-03T23:54:24.293Z,91.00
2019-04-03T23:59:28.337Z,91.20
